Fullerton, North Dakota
Current Conditions -  °F | °C
As of 3:15 AM on Saturday 22 Nov 2014 (Local Time) from KGWR Reporting Station
Clear Clear  
Wind Chill: 18°   Ceiling: Unl
Heat Index: 28°   Visibility: 10mi
Dew Point: 27°   Wind: 12mph
Humidity: 93%   Direction: 210°SSW
Pressure: 29.69"   Gusts: NA
Location:  46.17°N, 98.43°W
Report Text: KGWR 220915Z AUTO 21010KT 10SM CLR M02/M03 A2969 RMK A01 P000
Loading
Personal Weather Stations






























Interactive Weather Map New forecast layout! Learn more

10-Day Weather Forecast

Advertisements
Track Severe Weather on mobile